createdAt,value
2019-05-11T00:01:22.295Z,85.70
2019-05-11T00:03:51.521Z,85.90
2019-05-11T00:06:20.218Z,86.10
2019-05-11T00:08:48.912Z,86.00
2019-05-11T00:11:17.919Z,85.80
2019-05-11T00:13:46.576Z,85.80
2019-05-11T00:16:18.933Z,85.40
2019-05-11T00:18:46.747Z,85.20
2019-05-11T00:21:15.755Z,85.00
2019-05-11T00:23:44.692Z,84.60
2019-05-11T00:26:13.682Z,84.70
2019-05-11T00:28:42.365Z,84.60
2019-05-11T00:31:11.198Z,84.50
2019-05-11T00:33:40.088Z,84.20
2019-05-11T00:36:08.792Z,84.00
2019-05-11T00:38:37.722Z,84.20
2019-05-11T00:41:06.128Z,84.10
2019-05-11T00:43:34.816Z,83.90
2019-05-11T00:46:03.521Z,84.20
2019-05-11T00:48:32.297Z,84.30
2019-05-11T00:51:00.907Z,84.30
2019-05-11T00:53:29.852Z,84.20
2019-05-11T00:55:58.602Z,83.90
2019-05-11T00:58:29.111Z,84.00
2019-05-11T01:00:57.787Z,83.90
2019-05-11T01:03:26.801Z,84.00
2019-05-11T01:05:55.799Z,84.00
2019-05-11T01:08:24.401Z,84.30
2019-05-11T01:10:52.872Z,84.10
2019-05-11T01:13:21.423Z,84.00
2019-05-11T01:15:49.835Z,84.10
2019-05-11T01:18:18.610Z,84.20
2019-05-11T01:20:46.962Z,84.40
2019-05-11T01:23:15.471Z,84.50
2019-05-11T01:25:44.117Z,84.60
2019-05-11T01:28:12.635Z,84.80
2019-05-11T01:30:41.387Z,84.90
2019-05-11T01:33:10.115Z,84.80
2019-05-11T01:35:39.091Z,85.00
2019-05-11T01:38:07.476Z,85.10
2019-05-11T01:40:35.908Z,85.30
2019-05-11T01:43:04.882Z,85.50
2019-05-11T01:45:34.138Z,85.60
2019-05-11T01:48:02.839Z,85.60
2019-05-11T01:50:31.552Z,85.80
2019-05-11T01:53:00.486Z,85.90
2019-05-11T01:55:28.904Z,86.00
2019-05-11T01:57:57.587Z,86.00
2019-05-11T02:00:28.182Z,86.00
2019-05-11T02:02:57.064Z,86.40
2019-05-11T02:05:28.902Z,86.90
2019-05-11T02:08:00.014Z,87.00
2019-05-11T02:10:29.625Z,87.30
2019-05-11T02:12:58.738Z,87.30
2019-05-11T02:15:27.995Z,87.40
2019-05-11T02:17:57.053Z,87.50
2019-05-11T02:20:25.576Z,87.40
2019-05-11T02:22:54.326Z,87.30
2019-05-11T02:25:22.932Z,87.30
2019-05-11T02:27:51.650Z,87.00
2019-05-11T02:30:21.026Z,87.30
2019-05-11T02:32:50.354Z,87.40
2019-05-11T02:35:18.924Z,87.70
2019-05-11T02:37:47.546Z,87.90
2019-05-11T02:40:18.568Z,88.20
2019-05-11T02:42:47.172Z,88.20
2019-05-11T02:45:51.539Z,88.40
2019-05-11T02:48:20.675Z,88.80
2019-05-11T02:50:50.456Z,88.90
2019-05-11T02:53:20.303Z,89.00
2019-05-11T02:55:49.509Z,89.10
2019-05-11T02:58:18.274Z,89.30
2019-05-11T03:00:49.965Z,89.40
2019-05-11T03:03:18.708Z,89.20
2019-05-11T03:05:47.711Z,89.40
2019-05-11T03:08:16.283Z,89.50
2019-05-11T03:10:45.136Z,89.50
2019-05-11T03:13:14.098Z,89.80
2019-05-11T03:15:42.601Z,90.00
2019-05-11T03:18:11.128Z,90.10
2019-05-11T03:20:39.772Z,90.20
2019-05-11T03:23:08.555Z,90.30
2019-05-11T03:25:37.266Z,90.20
2019-05-11T03:28:06.024Z,90.30
2019-05-11T03:30:34.748Z,90.30
2019-05-11T03:33:04.387Z,90.70
2019-05-11T03:35:32.999Z,90.40
2019-05-11T03:38:01.617Z,90.40
2019-05-11T03:40:30.285Z,90.20
2019-05-11T03:42:59.267Z,90.30
2019-05-11T03:45:28.280Z,90.10
2019-05-11T03:47:56.973Z,90.20
2019-05-11T03:50:25.622Z,90.20
2019-05-11T03:52:54.761Z,90.30
2019-05-11T03:55:23.607Z,90.30
2019-05-11T03:57:52.911Z,90.30
2019-05-11T04:00:22.246Z,90.40
2019-05-11T04:02:52.734Z,90.50
2019-05-11T04:05:21.459Z,90.60
2019-05-11T04:07:50.085Z,90.70
2019-05-11T04:10:19.142Z,90.70
2019-05-11T04:12:47.868Z,90.70
2019-05-11T04:15:16.887Z,90.60
2019-05-11T04:17:45.439Z,90.50
2019-05-11T04:20:14.223Z,90.60
2019-05-11T04:22:43.225Z,90.50
2019-05-11T04:25:12.515Z,90.40
2019-05-11T04:27:41.513Z,90.20
2019-05-11T04:30:10.890Z,90.30
2019-05-11T04:32:39.476Z,90.30
2019-05-11T04:35:08.781Z,90.20
2019-05-11T04:37:37.521Z,90.00
2019-05-11T04:40:06.726Z,89.80
2019-05-11T04:42:53.240Z,89.40
2019-05-11T04:45:07.085Z,89.50
2019-05-11T04:47:35.725Z,90.00
2019-05-11T04:50:04.905Z,90.00
2019-05-11T04:52:33.520Z,89.90
2019-05-11T04:55:02.846Z,89.30
2019-05-11T04:57:31.259Z,89.50
2019-05-11T05:00:00.234Z,89.60
2019-05-11T05:02:28.726Z,89.60
2019-05-11T05:04:59.749Z,89.50
2019-05-11T05:07:28.758Z,89.90
2019-05-11T05:09:57.724Z,89.90
2019-05-11T05:12:26.441Z,89.90
2019-05-11T05:14:55.808Z,89.70
2019-05-11T05:17:24.453Z,89.60
2019-05-11T05:19:53.380Z,89.60
2019-05-11T05:22:22.005Z,89.70
2019-05-11T05:24:50.762Z,89.40
2019-05-11T05:27:19.797Z,89.20
2019-05-11T05:29:48.483Z,90.10
2019-05-11T05:32:16.978Z,89.30
2019-05-11T05:34:45.494Z,89.90
2019-05-11T05:37:14.237Z,89.90
2019-05-11T05:39:42.622Z,89.80
2019-05-11T05:42:11.279Z,90.00
2019-05-11T05:44:39.959Z,90.00
2019-05-11T05:47:08.359Z,90.00
2019-05-11T05:49:36.755Z,90.00
2019-05-11T05:52:05.433Z,90.00
2019-05-11T05:54:34.156Z,90.00
2019-05-11T05:57:02.747Z,90.10
2019-05-11T05:59:31.487Z,90.30
2019-05-11T06:02:00.186Z,90.10
2019-05-11T06:04:28.897Z,90.20
2019-05-11T06:06:59.340Z,90.20
2019-05-11T06:09:28.100Z,90.00
2019-05-11T06:11:57.405Z,89.10
2019-05-11T06:14:25.627Z,88.90
2019-05-11T06:16:55.087Z,88.80
2019-05-11T06:19:24.420Z,87.90
2019-05-11T06:21:53.135Z,86.70
2019-05-11T06:24:22.060Z,86.50
2019-05-11T06:26:50.840Z,85.20
2019-05-11T06:29:21.898Z,84.90
2019-05-11T06:31:49.845Z,85.00
2019-05-11T06:34:18.427Z,84.30
2019-05-11T06:36:47.015Z,84.60
2019-05-11T06:39:15.977Z,84.30
2019-05-11T06:41:44.594Z,84.40
2019-05-11T06:44:13.139Z,84.00
2019-05-11T06:46:42.092Z,83.00
2019-05-11T06:49:10.906Z,82.80
2019-05-11T06:51:41.886Z,83.50
2019-05-11T06:54:11.222Z,83.40
2019-05-11T06:56:40.240Z,82.70
2019-05-11T06:59:08.891Z,82.10
2019-05-11T07:01:37.425Z,81.00
2019-05-11T07:04:07.124Z,80.70
2019-05-11T07:06:35.543Z,80.20
2019-05-11T07:09:06.163Z,79.70
2019-05-11T07:11:35.117Z,79.20
2019-05-11T07:14:19.320Z,78.80
2019-05-11T07:16:34.410Z,78.10
2019-05-11T07:19:03.028Z,76.50
2019-05-11T07:21:31.391Z,76.80
2019-05-11T07:24:00.118Z,76.20
2019-05-11T07:26:29.719Z,73.00
2019-05-11T07:28:58.958Z,73.80
2019-05-11T07:31:27.711Z,73.20
2019-05-11T07:33:58.599Z,74.40
2019-05-11T07:36:28.287Z,73.80
2019-05-11T07:38:58.032Z,72.50
2019-05-11T07:41:28.181Z,72.60
2019-05-11T07:43:58.976Z,71.20
2019-05-11T07:46:28.836Z,71.10
2019-05-11T07:48:58.553Z,71.40
2019-05-11T07:51:28.706Z,68.40
2019-05-11T07:53:59.650Z,65.60
2019-05-11T07:56:28.674Z,60.40
2019-05-11T07:58:58.139Z,58.00
2019-05-11T08:01:28.242Z,56.10
2019-05-11T08:03:58.656Z,54.50
2019-05-11T08:06:28.548Z,53.40
2019-05-11T08:08:58.861Z,53.90
2019-05-11T08:11:31.098Z,53.60
2019-05-11T08:13:58.617Z,54.00
2019-05-11T08:16:28.623Z,55.40
2019-05-11T08:18:58.821Z,55.20
2019-05-11T08:21:28.533Z,55.50
2019-05-11T08:23:58.795Z,54.90
2019-05-11T08:26:28.256Z,56.00
2019-05-11T08:28:57.898Z,57.80
2019-05-11T08:31:27.921Z,58.60
2019-05-11T08:33:58.357Z,58.40
2019-05-11T08:36:28.819Z,58.70
2019-05-11T08:38:58.595Z,57.40
2019-05-11T08:41:28.164Z,57.20
2019-05-11T08:43:58.681Z,56.80
2019-05-11T08:46:28.133Z,56.70
2019-05-11T08:48:56.529Z,56.90
2019-05-11T08:51:24.987Z,57.10
2019-05-11T08:53:53.657Z,55.60
2019-05-11T08:56:23.550Z,54.00
2019-05-11T08:58:55.066Z,53.90
2019-05-11T09:01:22.786Z,55.40
2019-05-11T09:03:51.432Z,56.70
2019-05-11T09:06:20.298Z,57.50
2019-05-11T09:08:49.509Z,57.00
2019-05-11T09:11:19.045Z,56.80
2019-05-11T09:13:48.817Z,54.40
2019-05-11T09:16:19.003Z,53.80
2019-05-11T09:18:48.270Z,52.90
2019-05-11T09:21:19.048Z,50.70
2019-05-11T09:23:48.655Z,51.00
2019-05-11T09:26:24.363Z,51.80
2019-05-11T09:28:53.460Z,50.10
2019-05-11T09:31:22.083Z,48.50
2019-05-11T09:33:50.513Z,48.50
2019-05-11T09:36:19.176Z,49.20
2019-05-11T09:38:48.967Z,49.30
2019-05-11T09:41:18.290Z,49.90
2019-05-11T09:43:48.275Z,52.40
2019-05-11T09:46:18.828Z,52.60
2019-05-11T09:48:48.475Z,51.10
2019-05-11T09:51:18.503Z,50.40
2019-05-11T09:53:48.242Z,50.20
2019-05-11T09:56:18.414Z,48.80
2019-05-11T09:58:49.269Z,48.20
2019-05-11T10:01:18.528Z,49.60
2019-05-11T10:03:48.180Z,51.60
2019-05-11T10:06:18.968Z,50.60
2019-05-11T10:08:48.775Z,47.70
2019-05-11T10:11:18.914Z,45.50
2019-05-11T10:13:48.109Z,45.90
2019-05-11T10:16:17.810Z,46.10
2019-05-11T10:18:49.253Z,49.00
2019-05-11T10:21:18.924Z,51.20
2019-05-11T10:23:49.048Z,52.70
2019-05-11T10:26:18.975Z,54.30
2019-05-11T10:28:48.462Z,55.80
2019-05-11T10:31:18.110Z,57.10
2019-05-11T10:33:48.894Z,57.70
2019-05-11T10:36:18.957Z,58.30
2019-05-11T10:38:48.808Z,58.20
2019-05-11T10:41:18.433Z,57.10
2019-05-11T10:43:48.949Z,57.30
2019-05-11T10:46:22.925Z,56.30
2019-05-11T10:48:48.924Z,56.20
2019-05-11T10:51:18.561Z,55.60
2019-05-11T10:53:51.646Z,54.20
2019-05-11T10:56:18.152Z,54.60
2019-05-11T10:58:48.186Z,53.10
2019-05-11T11:01:19.234Z,51.50
2019-05-11T11:03:48.552Z,51.90
2019-05-11T11:06:18.843Z,51.00
2019-05-11T11:08:48.620Z,50.50
2019-05-11T11:11:18.458Z,49.30
2019-05-11T11:13:48.256Z,49.80
2019-05-11T11:16:32.837Z,49.90
2019-05-11T11:18:48.651Z,49.00
2019-05-11T11:21:22.600Z,44.50
2019-05-11T11:23:48.355Z,43.20
2019-05-11T11:26:18.440Z,42.90
2019-05-11T11:28:47.898Z,40.50
2019-05-11T11:31:18.633Z,39.70
2019-05-11T11:33:49.007Z,40.60
2019-05-11T11:36:18.075Z,40.90
2019-05-11T11:38:47.821Z,38.10
2019-05-11T11:41:18.585Z,36.80
2019-05-11T11:43:48.422Z,37.70
2019-05-11T11:46:18.833Z,36.70
2019-05-11T11:48:48.860Z,37.80
2019-05-11T11:51:18.722Z,36.30
2019-05-11T11:53:48.160Z,36.30
2019-05-11T11:56:19.185Z,36.90
2019-05-11T11:58:48.787Z,37.60
2019-05-11T12:01:18.941Z,36.80
2019-05-11T12:03:50.342Z,36.70
2019-05-11T12:06:18.967Z,36.90
2019-05-11T12:08:49.607Z,37.40
2019-05-11T12:11:18.935Z,37.10
2019-05-11T12:13:47.910Z,37.30
2019-05-11T12:16:18.005Z,36.20
2019-05-11T12:18:48.705Z,35.10
2019-05-11T12:21:18.566Z,35.20
2019-05-11T12:23:48.553Z,34.70
2019-05-11T12:26:18.023Z,34.90
2019-05-11T12:28:48.725Z,35.00
2019-05-11T12:31:18.494Z,34.20
2019-05-11T12:33:48.184Z,34.00
2019-05-11T12:36:18.804Z,34.60
2019-05-11T12:38:48.797Z,34.90
2019-05-11T12:41:18.972Z,36.00
2019-05-11T12:43:48.852Z,35.30
2019-05-11T12:46:18.900Z,34.80
2019-05-11T12:48:48.543Z,32.90
2019-05-11T12:51:18.703Z,33.50
2019-05-11T12:53:47.925Z,34.20
2019-05-11T12:56:18.998Z,33.50
2019-05-11T12:58:49.125Z,34.30
2019-05-11T13:01:19.625Z,35.20
2019-05-11T13:03:50.219Z,34.30
2019-05-11T13:06:19.344Z,34.00
2019-05-11T13:08:48.801Z,33.90
2019-05-11T13:11:18.784Z,33.80
2019-05-11T13:13:48.549Z,34.20
2019-05-11T13:16:18.491Z,35.50
2019-05-11T13:18:48.831Z,35.40
2019-05-11T13:21:18.344Z,33.10
2019-05-11T13:23:48.916Z,33.10
2019-05-11T13:26:18.132Z,33.20
2019-05-11T13:28:48.437Z,33.10
2019-05-11T13:31:18.766Z,33.40
2019-05-11T13:33:48.069Z,34.80
2019-05-11T13:36:18.533Z,34.60
2019-05-11T13:38:48.433Z,34.00
2019-05-11T13:41:18.905Z,33.50
2019-05-11T13:43:48.617Z,33.50
2019-05-11T13:46:18.043Z,33.20
2019-05-11T13:48:47.711Z,33.70
2019-05-11T13:51:18.245Z,33.60
2019-05-11T13:53:48.169Z,33.90
2019-05-11T13:56:18.368Z,33.50
2019-05-11T13:58:48.804Z,33.90
2019-05-11T14:01:18.780Z,33.00
2019-05-11T14:03:49.064Z,32.10
2019-05-11T14:06:19.902Z,32.40
2019-05-11T14:08:48.371Z,32.70
2019-05-11T14:11:18.124Z,33.10
2019-05-11T14:13:48.138Z,33.30
2019-05-11T14:16:18.537Z,32.80
2019-05-11T14:18:48.911Z,32.40
2019-05-11T14:21:18.716Z,32.30
2019-05-11T14:23:48.385Z,31.90
2019-05-11T14:26:19.152Z,31.90
2019-05-11T14:28:48.207Z,32.00
2019-05-11T14:31:18.832Z,33.20
2019-05-11T14:33:49.055Z,31.40
2019-05-11T14:36:18.575Z,31.40
2019-05-11T14:38:48.804Z,31.00
2019-05-11T14:41:18.175Z,30.30
2019-05-11T14:43:48.970Z,30.90
2019-05-11T14:46:18.250Z,31.90
2019-05-11T14:48:48.091Z,33.30
2019-05-11T14:51:18.127Z,32.60
2019-05-11T14:53:48.098Z,31.00
2019-05-11T14:56:19.016Z,31.00
2019-05-11T14:58:49.198Z,29.70
2019-05-11T15:01:18.428Z,31.50
2019-05-11T15:03:48.686Z,29.00
2019-05-11T15:06:18.864Z,29.20
2019-05-11T15:08:49.553Z,28.20
2019-05-11T15:11:19.128Z,29.40
2019-05-11T15:13:48.811Z,29.30
2019-05-11T15:16:18.793Z,29.80
2019-05-11T15:18:48.488Z,30.10
2019-05-11T15:21:18.984Z,30.90
2019-05-11T15:23:47.875Z,30.10
2019-05-11T15:26:18.664Z,29.90
2019-05-11T15:28:48.542Z,30.10
2019-05-11T15:31:22.149Z,29.80
2019-05-11T15:33:49.018Z,30.50
2019-05-11T15:36:19.243Z,30.60
2019-05-11T15:38:48.139Z,30.60
2019-05-11T15:41:17.763Z,30.00
2019-05-11T15:43:48.073Z,30.60
2019-05-11T15:46:19.541Z,30.20
2019-05-11T15:48:58.505Z,30.50
2019-05-11T15:51:18.730Z,30.40
2019-05-11T15:53:50.089Z,30.20
2019-05-11T15:56:18.989Z,30.50
2019-05-11T15:58:48.583Z,30.50
2019-05-11T16:01:18.832Z,30.70
2019-05-11T16:03:49.884Z,30.40
2019-05-11T16:06:19.208Z,30.00
2019-05-11T16:08:49.825Z,29.50
2019-05-11T16:11:18.507Z,30.20
2019-05-11T16:13:48.462Z,30.20
2019-05-11T16:16:17.078Z,30.90
2019-05-11T16:18:46.050Z,30.90
2019-05-11T16:21:14.686Z,31.20
2019-05-11T16:23:43.145Z,31.00
2019-05-11T16:26:12.161Z,31.40
2019-05-11T16:28:41.149Z,31.40
2019-05-11T16:31:10.103Z,31.40
2019-05-11T16:33:38.834Z,31.50
2019-05-11T16:36:09.006Z,31.10
2019-05-11T16:38:38.220Z,30.90
2019-05-11T16:41:08.947Z,30.60
2019-05-11T16:43:38.544Z,30.70
2019-05-11T16:46:08.664Z,30.90
2019-05-11T16:48:38.303Z,31.50
2019-05-11T16:51:08.665Z,31.60
2019-05-11T16:53:39.064Z,31.80
2019-05-11T16:56:08.441Z,30.70
2019-05-11T16:58:40.712Z,31.50
2019-05-11T17:01:08.814Z,31.00
2019-05-11T17:03:38.490Z,31.70
2019-05-11T17:06:08.334Z,31.80
2019-05-11T17:08:38.377Z,32.20
2019-05-11T17:11:09.034Z,32.10
2019-05-11T17:13:39.506Z,32.40
2019-05-11T17:16:08.843Z,32.40
2019-05-11T17:18:37.609Z,32.80
2019-05-11T17:21:07.785Z,32.80
2019-05-11T17:23:38.204Z,33.10
2019-05-11T17:26:08.533Z,32.70
2019-05-11T17:28:38.484Z,32.80
2019-05-11T17:31:08.023Z,33.00
2019-05-11T17:33:38.496Z,32.90
2019-05-11T17:36:08.409Z,33.20
2019-05-11T17:38:38.932Z,33.20
2019-05-11T17:41:08.661Z,33.30
2019-05-11T17:43:38.633Z,33.70
2019-05-11T17:46:08.159Z,34.00
2019-05-11T17:48:38.862Z,34.30
2019-05-11T17:51:20.940Z,34.10
2019-05-11T17:53:37.885Z,34.40
2019-05-11T17:56:06.913Z,34.90
2019-05-11T17:58:37.680Z,35.30
2019-05-11T18:01:06.068Z,35.50
2019-05-11T18:03:34.532Z,35.60
2019-05-11T18:06:03.919Z,35.80
2019-05-11T18:08:32.494Z,35.50
2019-05-11T18:11:02.117Z,35.70
2019-05-11T18:13:33.011Z,35.70
2019-05-11T18:16:02.998Z,36.00
2019-05-11T18:18:31.618Z,36.20
2019-05-11T18:21:00.569Z,36.50
2019-05-11T18:23:29.617Z,36.60
2019-05-11T18:25:57.915Z,36.70
2019-05-11T18:28:29.098Z,37.00
2019-05-11T18:30:58.275Z,37.10
2019-05-11T18:33:27.721Z,37.20
2019-05-11T18:35:58.569Z,37.30
2019-05-11T18:38:27.603Z,37.40
2019-05-11T18:40:57.980Z,37.60
2019-05-11T18:43:28.049Z,37.80
2019-05-11T18:45:58.153Z,38.20
2019-05-11T18:48:28.950Z,38.40
2019-05-11T18:50:59.004Z,38.50
2019-05-11T18:53:28.853Z,38.80
2019-05-11T18:55:58.984Z,38.80
2019-05-11T18:58:28.100Z,38.80
2019-05-11T19:00:56.401Z,38.80
2019-05-11T19:03:25.127Z,38.80
2019-05-11T19:05:53.770Z,38.90
2019-05-11T19:08:22.489Z,39.10
2019-05-11T19:10:51.231Z,39.30
2019-05-11T19:13:21.363Z,39.50
2019-05-11T19:15:52.096Z,39.90
2019-05-11T19:18:20.936Z,40.40
2019-05-11T19:20:49.704Z,40.40
2019-05-11T19:23:19.282Z,40.90
2019-05-11T19:25:48.249Z,41.00
2019-05-11T19:28:18.644Z,41.10
2019-05-11T19:30:48.850Z,41.10
2019-05-11T19:33:18.963Z,41.20
2019-05-11T19:35:48.183Z,41.30
2019-05-11T19:38:18.924Z,41.30
2019-05-11T19:40:48.463Z,41.20
2019-05-11T19:43:18.538Z,41.30
2019-05-11T19:45:48.732Z,41.50
2019-05-11T19:48:17.469Z,41.90
2019-05-11T19:51:00.889Z,42.00
2019-05-11T19:53:18.714Z,42.30
2019-05-11T19:55:47.937Z,42.40
2019-05-11T19:58:19.177Z,42.60
2019-05-11T20:00:48.810Z,42.80
2019-05-11T20:03:18.261Z,42.80
2019-05-11T20:05:48.564Z,42.90
2019-05-11T20:08:18.429Z,43.10
2019-05-11T20:10:48.673Z,43.20
2019-05-11T20:13:17.983Z,43.30
2019-05-11T20:15:48.745Z,43.60
2019-05-11T20:18:19.219Z,43.60
2019-05-11T20:20:48.163Z,43.70
2019-05-11T20:23:16.982Z,43.60
2019-05-11T20:25:47.662Z,43.50
2019-05-11T20:28:18.177Z,43.40
2019-05-11T20:30:48.315Z,43.70
2019-05-11T20:33:18.938Z,44.20
2019-05-11T20:35:48.818Z,44.00
2019-05-11T20:38:18.809Z,44.30
2019-05-11T20:40:48.444Z,44.50
2019-05-11T20:43:18.606Z,44.50
2019-05-11T20:45:48.580Z,44.20
2019-05-11T20:48:18.603Z,44.80
2019-05-11T20:50:48.365Z,45.30
2019-05-11T20:53:18.039Z,45.30
2019-05-11T20:55:47.813Z,45.10
2019-05-11T20:58:18.970Z,45.30
2019-05-11T21:00:49.045Z,45.10
2019-05-11T21:03:18.124Z,45.50
2019-05-11T21:05:48.216Z,45.20
2019-05-11T21:08:17.739Z,44.80
2019-05-11T21:10:48.996Z,44.90
2019-05-11T21:13:17.909Z,45.10
2019-05-11T21:15:47.826Z,46.10
2019-05-11T21:18:18.414Z,45.80
2019-05-11T21:20:48.976Z,45.90
2019-05-11T21:23:18.575Z,46.20
2019-05-11T21:25:48.196Z,46.40
2019-05-11T21:28:17.173Z,46.40
2019-05-11T21:30:48.140Z,46.50
2019-05-11T21:33:17.885Z,46.50
2019-05-11T21:35:48.923Z,46.90
2019-05-11T21:38:17.773Z,47.10
2019-05-11T21:40:48.485Z,47.60
2019-05-11T21:43:16.962Z,47.90
2019-05-11T21:45:45.672Z,48.10
2019-05-11T21:48:14.091Z,48.50
2019-05-11T21:50:42.705Z,48.70
2019-05-11T21:53:11.369Z,48.90
2019-05-11T21:55:39.849Z,49.10
2019-05-11T21:58:09.129Z,49.40
2019-05-11T22:00:38.741Z,49.60
2019-05-11T22:03:10.082Z,49.90
2019-05-11T22:05:38.168Z,50.20
2019-05-11T22:08:08.560Z,50.60
2019-05-11T22:10:38.500Z,50.50
2019-05-11T22:13:07.530Z,50.70
2019-05-11T22:15:38.367Z,51.30
2019-05-11T22:18:07.985Z,51.00
2019-05-11T22:20:41.000Z,51.10
2019-05-11T22:23:11.337Z,51.50
2019-05-11T22:25:40.028Z,51.10
2019-05-11T22:28:08.656Z,51.00
2019-05-11T22:30:39.329Z,51.00
2019-05-11T22:33:08.813Z,51.20
2019-05-11T22:35:37.848Z,52.10
2019-05-11T22:38:08.372Z,51.80
2019-05-11T22:40:38.317Z,51.80
2019-05-11T22:43:09.321Z,52.50
2019-05-11T22:45:38.254Z,52.30
2019-05-11T22:48:07.871Z,52.60
2019-05-11T22:50:38.189Z,52.30
2019-05-11T22:53:08.899Z,52.30
2019-05-11T22:55:38.255Z,52.40
2019-05-11T22:58:08.454Z,52.40
2019-05-11T23:00:42.608Z,52.60
2019-05-11T23:03:11.567Z,52.60
2019-05-11T23:05:40.739Z,52.50
2019-05-11T23:08:09.299Z,52.60
2019-05-11T23:10:38.808Z,53.30
2019-05-11T23:13:11.381Z,52.40
2019-05-11T23:15:40.384Z,52.40
2019-05-11T23:18:09.232Z,52.20
2019-05-11T23:20:38.847Z,52.00
2019-05-11T23:23:09.179Z,51.80
2019-05-11T23:25:39.504Z,51.90
2019-05-11T23:28:08.369Z,51.80
2019-05-11T23:30:38.994Z,51.90
2019-05-11T23:33:08.038Z,51.80
2019-05-11T23:35:38.309Z,51.80
2019-05-11T23:38:07.924Z,51.70
2019-05-11T23:40:37.936Z,51.80
2019-05-11T23:43:08.663Z,51.60
2019-05-11T23:45:38.198Z,51.80
2019-05-11T23:48:06.918Z,52.20
2019-05-11T23:50:35.621Z,51.80
2019-05-11T23:53:06.834Z,51.90
2019-05-11T23:55:34.939Z,52.00
2019-05-11T23:58:03.520Z,51.90
